Terminal Aerodrome Forecast
Issued by NWS

Home | Current Version | Previous Version | Graphics & Text | Print | Product List | Glossary On
Versions: 1 2 3 4 5 6 7 8 9 10 11 12 13 14 15 16 17 18
000
FTUS43 KGRB 252300
TAFATW
TAF
KATW 252328Z 2600/2624 07009KT P6SM SCT025 BKN100
     FM260700 04005KT P6SM SCT100 BKN200
     FM261400 19004KT P6SM OVC070
     FM261700 19011KT 2SM -SN BKN018 OVC025
     FM262200 16006KT 5SM -SN OVC012=

USA.gov is the U.S. government's official web portal to all federal, state and local government web resources and services.